Time;durP1;ratioP1;P1;durP2;ratioP2;P2;SDS_P1;SDS_P2;PMS_P1;PMS_P2;Temp;Humidity;BMP_temperature;BMP_pressure;BME280_temperature;BME280_humidity;BME280_pressure;Samples;Min_cycle;Max_cycle;Signal;HPM_P1;HPM_P2
2022/03/13 00:00:57;;;;;;;4.45;3.58;;;10.00;99.90;;;;;;1985368;72;21050;-92
2022/03/13 00:03:49;;;;;;;6.08;3.62;;;9.90;99.90;;;;;;1985362;72;21120;-92
2022/03/13 00:06:46;;;;;;;5.92;3.30;;;9.90;99.90;;;;;;2010139;71;21155;-94
2022/03/13 00:09:38;;;;;;;4.85;3.70;;;9.90;99.90;;;;;;1942474;74;21099;-92
2022/03/13 00:12:30;;;;;;;5.58;3.58;;;9.90;99.90;;;;;;1985619;72;21639;-94
2022/03/13 00:15:24;;;;;;;7.47;3.58;;;9.80;99.90;;;;;;1958723;72;21027;-92
2022/03/13 00:18:16;;;;;;;4.67;3.75;;;9.80;99.90;;;;;;2022060;71;21038;-93
2022/03/13 00:21:11;;;;;;;5.90;4.03;;;9.80;99.90;;;;;;1991098;71;21035;-93
2022/03/13 00:24:03;;;;;;;5.22;3.70;;;9.80;99.90;;;;;;1985341;71;21040;-92
2022/03/13 01:26:52;;;;;;;6.22;4.20;;;9.50;99.90;;;;;;2018039;70;22297;-94
2022/03/13 01:30:04;;;;;;;4.95;3.87;;;9.50;99.90;;;;;;1974000;72;21015;-93
2022/03/13 01:32:56;;;;;;;5.45;4.05;;;9.40;99.90;;;;;;2033311;70;21063;-94
2022/03/13 01:35:53;;;;;;;5.78;4.08;;;9.50;99.90;;;;;;2046818;69;21087;-94
2022/03/13 01:38:52;;;;;;;7.03;3.95;;;9.50;99.90;;;;;;2044776;69;21068;-92
2022/03/13 01:41:43;;;;;;;6.15;3.95;;;9.40;99.90;;;;;;2033323;70;21150;-93
2022/03/13 01:44:35;;;;;;;9.88;4.05;;;9.40;99.90;;;;;;2033345;70;21064;-92
2022/03/13 01:47:27;;;;;;;6.03;4.05;;;9.40;99.90;;;;;;2033001;70;21073;-92
2022/03/13 01:50:19;;;;;;;8.30;4.15;;;9.40;99.90;;;;;;2040565;69;21018;-93
2022/03/13 01:53:12;;;;;;;4.97;3.65;;;9.40;99.90;;;;;;2070552;69;21039;-93
2022/03/13 01:56:04;;;;;;;6.00;4.45;;;9.40;99.90;;;;;;2033152;70;21040;-93
2022/03/13 01:58:57;;;;;;;5.62;4.20;;;9.40;99.90;;;;;;2033219;70;21104;-91
2022/03/13 02:01:48;;;;;;;6.42;4.50;;;9.30;99.90;;;;;;2034052;70;21121;-92
2022/03/13 02:04:41;;;;;;;7.67;5.22;;;9.30;99.90;;;;;;2033873;70;21144;-93
2022/03/13 02:07:35;;;;;;;6.45;4.42;;;9.30;99.90;;;;;;2033091;70;21038;-92
2022/03/13 02:10:26;;;;;;;7.15;4.40;;;9.30;99.90;;;;;;1988398;72;21039;-92
2022/03/13 02:16:08;;;;;;;6.15;4.42;;;9.20;99.90;;;;;;1977216;72;22241;-93
2022/03/13 02:19:18;;;;;;;6.28;4.42;;;9.20;99.90;;;;;;1952483;73;21101;-91
2022/03/13 02:44:00;;;;;;;7.60;4.37;;;9.10;99.90;;;;;;1980726;71;22204;-92
2022/03/13 02:47:12;;;;;;;6.50;4.60;;;9.10;99.90;;;;;;1954354;73;21207;-93
2022/03/13 02:50:04;;;;;;;4.30;3.75;;;9.00;99.90;;;;;;2033380;70;21027;-92
2022/03/13 02:52:56;;;;;;;5.65;4.17;;;9.00;99.90;;;;;;2034587;70;21082;-93
2022/03/13 02:55:47;;;;;;;5.90;4.53;;;9.00;99.90;;;;;;2053105;69;21121;-92
2022/03/13 02:58:38;;;;;;;4.80;3.87;;;9.10;99.90;;;;;;2036688;69;21054;-92
2022/03/13 03:01:31;;;;;;;5.45;4.00;;;9.10;99.90;;;;;;2033795;70;21069;-92
2022/03/13 03:04:25;;;;;;;6.25;4.45;;;9.10;99.90;;;;;;2035118;70;21019;-93
2022/03/13 03:07:17;;;;;;;7.62;4.60;;;9.00;99.90;;;;;;2034759;70;21031;-93
2022/03/13 03:13:47;;;;;;;7.08;4.60;;;9.00;99.90;;;;;;1975203;72;22531;-94
2022/03/13 03:16:58;;;;;;;4.95;4.42;;;8.90;99.90;;;;;;1935043;73;21037;-92
2022/03/13 03:19:50;;;;;;;5.15;4.58;;;8.90;99.90;;;;;;1931365;74;21042;-93
2022/03/13 03:22:42;;;;;;;6.92;4.40;;;9.00;99.90;;;;;;1941796;73;21132;-91
2022/03/13 03:25:34;;;;;;;5.15;4.33;;;8.90;99.90;;;;;;1957240;70;21039;-92
2022/03/13 03:28:26;;;;;;;6.10;4.28;;;9.00;99.90;;;;;;1940422;74;21129;-93
2022/03/13 03:31:19;;;;;;;4.97;4.03;;;9.00;99.90;;;;;;1938806;74;21332;-92
2022/03/13 03:34:15;;;;;;;6.12;4.35;;;8.90;99.90;;;;;;1951321;73;21109;-92
2022/03/13 03:37:07;;;;;;;5.17;4.42;;;8.90;99.90;;;;;;1920865;73;21053;-93
2022/03/13 03:39:59;;;;;;;6.65;4.37;;;8.90;99.90;;;;;;1920126;75;21093;-92
2022/03/13 03:42:52;;;;;;;5.87;4.47;;;8.90;99.90;;;;;;1920144;75;21050;-91
2022/03/13 03:45:44;;;;;;;5.50;3.70;;;8.90;99.90;;;;;;1920050;75;21081;-92
2022/03/13 03:52:46;;;;;;;5.12;3.98;;;8.90;99.90;;;;;;1995237;71;22103;-94
2022/03/13 03:55:58;;;;;;;5.47;4.25;;;8.80;99.90;;;;;;1954532;73;21026;-92
2022/03/13 03:58:50;;;;;;;7.83;4.28;;;8.90;99.90;;;;;;1990659;72;21083;-91
2022/03/13 04:01:44;;;;;;;6.87;4.47;;;8.90;99.90;;;;;;2052171;70;21107;-92
2022/03/13 04:04:41;;;;;;;5.95;4.47;;;8.90;99.90;;;;;;1993407;72;21043;-93
2022/03/13 04:07:33;;;;;;;6.47;4.80;;;9.00;99.90;;;;;;2042294;70;21625;-92
2022/03/13 04:10:25;;;;;;;6.00;4.75;;;9.00;99.90;;;;;;2051379;69;21023;-93
2022/03/13 04:13:18;;;;;;;6.85;4.47;;;9.10;99.90;;;;;;2034706;69;21116;-91
2022/03/13 04:16:12;;;;;;;4.92;3.95;;;9.00;99.90;;;;;;2036679;70;21015;-93
2022/03/13 04:19:04;;;;;;;7.03;4.78;;;9.00;99.90;;;;;;2034361;70;21047;-92
2022/03/13 04:21:56;;;;;;;6.85;4.97;;;8.90;99.90;;;;;;2033247;70;21041;-93
2022/03/13 04:24:50;;;;;;;5.08;4.12;;;8.90;99.90;;;;;;2033319;70;21048;-94
2022/03/13 04:27:44;;;;;;;8.73;4.45;;;8.90;99.90;;;;;;2036453;70;21143;-92
2022/03/13 04:30:39;;;;;;;6.20;4.67;;;8.80;99.90;;;;;;2038050;69;21164;-90
2022/03/13 04:33:33;;;;;;;5.97;4.70;;;8.80;99.90;;;;;;2071446;69;21059;-93
2022/03/13 04:36:28;;;;;;;5.72;4.00;;;8.80;99.90;;;;;;2033440;69;21159;-93
2022/03/13 04:39:19;;;;;;;8.20;4.78;;;8.70;99.90;;;;;;2033132;70;21028;-92
2022/03/13 04:42:14;;;;;;;8.65;4.90;;;8.70;99.90;;;;;;2035260;70;21074;-92
2022/03/13 04:45:08;;;;;;;8.45;6.37;;;8.70;99.90;;;;;;2038540;70;21040;-92
2022/03/13 04:48:00;;;;;;;7.22;5.97;;;8.80;99.90;;;;;;2036185;70;21058;-88
2022/03/13 04:50:51;;;;;;;9.88;6.05;;;8.70;99.90;;;;;;2033781;70;21030;-89
2022/03/13 04:56:23;;;;;;;11.35;8.45;;;8.80;99.90;;;;;;1975369;72;22732;-90
2022/03/13 04:59:34;;;;;;;19.07;14.03;;;8.80;99.90;;;;;;1917857;75;21135;-89
2022/03/13 05:02:25;;;;;;;23.22;18.48;;;8.90;99.90;;;;;;1917898;75;21087;-89
2022/03/13 05:05:22;;;;;;;24.57;18.87;;;8.80;99.90;;;;;;1917827;75;21059;-89
2022/03/13 05:08:15;;;;;;;31.12;22.40;;;8.80;99.90;;;;;;1917831;75;21134;-88
2022/03/13 05:11:07;;;;;;;18.87;14.20;;;8.80;99.90;;;;;;1917585;75;21164;-89
2022/03/13 05:13:59;;;;;;;16.15;11.12;;;8.80;99.90;;;;;;1917504;75;21078;-88
2022/03/13 05:16:51;;;;;;;12.43;10.90;;;8.90;99.90;;;;;;1917731;75;21064;-89
2022/03/13 05:19:44;;;;;;;18.60;11.43;;;8.90;99.90;;;;;;1917545;75;21139;-89
2022/03/13 05:22:36;;;;;;;15.25;11.35;;;8.80;99.90;;;;;;1875500;76;21086;-88
2022/03/13 05:25:31;;;;;;;13.32;8.50;;;8.90;99.90;;;;;;1921845;75;21061;-88
2022/03/13 05:28:24;;;;;;;17.90;12.63;;;9.00;99.90;;;;;;1917889;75;21115;-88
2022/03/13 05:31:15;;;;;;;22.62;16.00;;;9.10;99.90;;;;;;1917853;75;21227;-90
2022/03/13 05:34:09;;;;;;;14.40;10.78;;;9.20;99.90;;;;;;1917666;75;21137;-90
2022/03/13 05:37:00;;;;;;;9.53;7.65;;;9.20;99.90;;;;;;1942236;73;21059;-90
2022/03/13 05:39:53;;;;;;;7.60;6.10;;;9.20;99.90;;;;;;1931798;73;21101;-88
2022/03/13 05:42:46;;;;;;;6.87;5.45;;;9.20;99.90;;;;;;1917589;75;21498;-89
2022/03/13 05:45:39;;;;;;;7.55;5.65;;;9.10;99.90;;;;;;1917823;75;21114;-88
2022/03/13 05:48:31;;;;;;;8.13;5.75;;;9.10;99.90;;;;;;1917819;75;21218;-89
2022/03/13 05:51:23;;;;;;;7.40;5.47;;;9.10;99.90;;;;;;1939427;73;21043;-89
2022/03/13 05:54:20;;;;;;;6.85;5.33;;;9.10;99.90;;;;;;1917431;75;21114;-89
2022/03/13 05:57:15;;;;;;;10.82;6.10;;;9.10;99.90;;;;;;1921050;74;21373;-89
2022/03/13 06:00:10;;;;;;;9.15;6.45;;;9.10;99.90;;;;;;1919212;74;21107;-89
2022/03/13 06:03:04;;;;;;;11.22;7.83;;;9.00;99.90;;;;;;1919203;74;21137;-88
2022/03/13 06:06:13;;;;;;;12.50;8.10;;;9.10;99.90;;;;;;1919179;74;21221;-90
2022/03/13 06:09:04;;;;;;;10.98;8.98;;;9.10;99.90;;;;;;1925126;74;21124;-91
2022/03/13 06:11:56;;;;;;;11.68;7.50;;;9.10;99.90;;;;;;1927279;74;21105;-89
2022/03/13 06:22:22;;;;;;;10.03;7.05;;;8.70;99.90;;;;;;1986794;71;22111;-89
2022/03/13 06:25:32;;;;;;;9.55;7.12;;;8.60;99.90;;;;;;1953408;73;21200;-87
2022/03/13 06:28:25;;;;;;;10.03;6.87;;;8.60;99.90;;;;;;2053551;69;21019;-88
2022/03/13 06:31:20;;;;;;;9.88;6.90;;;8.70;99.90;;;;;;2055710;69;21108;-87
2022/03/13 06:34:11;;;;;;;8.45;6.47;;;8.80;99.90;;;;;;2057859;69;21200;-87
2022/03/13 06:37:04;;;;;;;9.70;6.85;;;8.90;99.90;;;;;;2035094;69;21128;-89
2022/03/13 06:39:58;;;;;;;8.33;6.45;;;9.00;99.90;;;;;;2046968;69;21028;-88
2022/03/13 06:42:51;;;;;;;9.28;6.50;;;9.00;99.90;;;;;;2033937;70;21023;-87
2022/03/13 06:45:45;;;;;;;7.60;6.53;;;9.10;99.90;;;;;;2033463;70;21085;-87
2022/03/13 06:48:38;;;;;;;10.18;6.80;;;9.20;99.90;;;;;;2033311;70;21051;-87
2022/03/13 06:51:29;;;;;;;10.15;6.65;;;9.30;99.90;;;;;;2033488;70;21035;-88
2022/03/13 06:54:21;;;;;;;9.85;6.87;;;9.40;99.90;;;;;;2034161;70;21084;-88
2022/03/13 06:57:15;;;;;;;12.75;7.10;;;9.30;99.90;;;;;;2033459;70;21066;-87
2022/03/13 07:00:09;;;;;;;8.43;5.78;;;9.20;99.90;;;;;;2032696;70;21034;-87
2022/03/13 07:03:01;;;;;;;8.78;5.42;;;9.20;99.90;;;;;;2034566;70;21060;-87
2022/03/13 07:05:53;;;;;;;5.45;4.62;;;9.00;99.90;;;;;;2034245;70;21566;-88
2022/03/13 07:08:45;;;;;;;6.37;4.83;;;8.90;99.90;;;;;;2033853;70;21607;-88
2022/03/13 07:11:37;;;;;;;5.90;4.75;;;8.90;99.90;;;;;;2042461;69;21027;-89
2022/03/13 07:14:30;;;;;;;6.17;5.12;;;8.80;99.90;;;;;;2040549;69;21156;-88
2022/03/13 07:17:22;;;;;;;6.33;4.83;;;8.90;99.90;;;;;;2033450;70;21039;-88
2022/03/13 07:20:15;;;;;;;4.90;4.40;;;8.80;99.90;;;;;;2032142;70;21766;-87
2022/03/13 07:23:06;;;;;;;6.60;4.90;;;8.90;99.90;;;;;;2038952;70;21185;-89
2022/03/13 07:25:58;;;;;;;5.97;4.87;;;8.80;99.90;;;;;;2039269;70;21155;-89
2022/03/13 07:28:53;;;;;;;6.33;4.60;;;8.90;99.90;;;;;;2039223;70;21101;-88
2022/03/13 07:31:45;;;;;;;6.40;4.72;;;8.90;99.90;;;;;;2038921;70;21618;-88
2022/03/13 07:34:37;;;;;;;6.37;4.85;;;9.00;99.90;;;;;;2054481;69;21066;-88
2022/03/13 07:37:29;;;;;;;7.53;4.65;;;9.10;99.90;;;;;;2064937;69;21077;-87
2022/03/13 07:40:22;;;;;;;5.97;4.95;;;9.20;99.90;;;;;;2049981;69;21031;-87
2022/03/13 07:43:14;;;;;;;5.45;4.62;;;9.30;99.90;;;;;;2038593;70;21080;-87
2022/03/13 07:46:06;;;;;;;6.12;4.87;;;9.30;99.90;;;;;;2056379;69;21030;-88
2022/03/13 07:48:59;;;;;;;5.58;4.70;;;9.40;99.90;;;;;;2047881;69;21143;-87
2022/03/13 07:51:53;;;;;;;5.80;4.58;;;9.40;99.90;;;;;;2052028;69;21165;-87
2022/03/13 07:54:44;;;;;;;5.00;4.33;;;9.30;99.90;;;;;;2045323;69;21158;-87
2022/03/13 08:00:17;;;;;;;6.47;4.65;;;9.20;99.90;;;;;;1944128;72;22370;-89
2022/03/13 08:03:35;;;;;;;6.12;4.40;;;9.20;99.90;;;;;;1920715;73;21098;-87
2022/03/13 08:06:24;;;;;;;6.65;4.40;;;9.10;99.90;;;;;;1930353;73;21035;-88
2022/03/13 08:09:15;;;;;;;7.60;4.97;;;9.20;99.90;;;;;;1925167;73;21147;-88
2022/03/13 08:14:53;;;;;;;7.90;4.62;;;9.20;99.90;;;;;;1944689;72;22230;-89
2022/03/13 08:18:04;;;;;;;5.92;5.00;;;9.30;99.90;;;;;;1905817;75;21056;-88
2022/03/13 08:20:56;;;;;;;7.30;4.78;;;9.30;99.90;;;;;;1914654;74;21063;-87
2022/03/13 08:23:47;;;;;;;5.35;4.60;;;9.30;99.90;;;;;;1910438;74;21204;-87
2022/03/13 08:26:40;;;;;;;8.80;5.05;;;9.40;99.90;;;;;;1927489;74;21044;-87
2022/03/13 08:29:31;;;;;;;6.65;4.72;;;9.50;99.90;;;;;;1912839;74;21102;-89
2022/03/13 08:32:23;;;;;;;7.72;5.15;;;9.60;99.90;;;;;;1878388;75;21100;-89
2022/03/13 08:35:15;;;;;;;9.13;5.70;;;9.70;99.90;;;;;;1911168;74;21117;-89
2022/03/13 08:38:06;;;;;;;8.33;5.53;;;9.80;99.90;;;;;;1905104;75;21555;-89
2022/03/13 08:40:58;;;;;;;10.75;5.33;;;9.90;99.90;;;;;;1916399;73;21208;-88
2022/03/13 08:43:50;;;;;;;6.62;5.40;;;10.00;99.90;;;;;;1905644;75;21063;-82
2022/03/13 08:46:42;;;;;;;7.28;5.20;;;10.00;99.90;;;;;;1913981;74;21059;-83
2022/03/13 08:49:33;;;;;;;7.75;5.72;;;10.10;99.90;;;;;;1915374;74;21126;-80
2022/03/13 08:52:24;;;;;;;8.23;5.90;;;10.20;99.90;;;;;;1917598;74;21178;-81
2022/03/13 08:55:18;;;;;;;6.22;5.35;;;10.20;99.90;;;;;;1915418;74;21098;-81
2022/03/13 08:58:09;;;;;;;8.48;5.87;;;10.30;99.90;;;;;;1905138;75;21184;-81
2022/03/13 09:03:41;;;;;;;6.78;5.45;;;10.50;99.90;;;;;;1956146;72;22123;-82
2022/03/13 09:06:54;;;;;;;7.62;5.50;;;10.40;99.90;;;;;;1900431;75;21039;-81
2022/03/13 09:09:46;;;;;;;7.53;6.37;;;10.70;99.90;;;;;;1902821;75;21094;-80
2022/03/13 09:12:38;;;;;;;8.03;5.92;;;10.90;99.90;;;;;;1895865;75;21085;-81
2022/03/13 09:15:30;;;;;;;8.38;6.35;;;11.20;99.90;;;;;;1896586;75;21058;-81
2022/03/13 09:18:21;;;;;;;7.45;5.58;;;11.10;99.90;;;;;;1856158;76;21120;-82
2022/03/13 09:23:56;;;;;;;12.45;6.15;;;11.00;99.90;;;;;;1941850;72;22762;-80
2022/03/13 09:27:06;;;;;;;8.53;5.83;;;11.10;99.90;;;;;;1915453;74;21024;-82
2022/03/13 09:32:42;;;;;;;7.80;6.00;;;11.30;99.90;;;;;;1925831;72;22735;-83
2022/03/13 09:38:31;;;;;;;10.08;6.50;;;11.60;99.90;;;;;;1952752;72;22268;-82
2022/03/13 09:41:45;;;;;;;7.97;5.72;;;11.80;99.90;;;;;;1928833;73;21070;-82
2022/03/13 09:44:38;;;;;;;8.38;6.22;;;11.90;99.90;;;;;;1927483;73;21120;-81
2022/03/13 09:47:31;;;;;;;7.50;6.17;;;12.10;99.90;;;;;;1917282;75;21156;-81
2022/03/13 09:53:06;;;;;;;8.13;5.92;;;12.10;99.90;;;;;;1935734;72;22247;-82
2022/03/13 09:58:54;;;;;;;10.15;6.58;;;12.00;99.90;;;;;;1944335;72;22162;-83
2022/03/13 10:02:08;;;;;;;7.33;6.12;;;12.10;99.90;;;;;;1895886;75;21105;-82
2022/03/13 10:07:56;;;;;;;8.85;6.70;;;12.30;99.90;;;;;;1934392;72;22130;-80
2022/03/13 10:11:07;;;;;;;8.75;6.55;;;12.50;99.90;;;;;;1906307;75;21051;-81
2022/03/13 10:16:47;;;;;;;9.63;6.30;;;12.60;99.90;;;;;;1943802;72;22122;-82
2022/03/13 10:22:35;;;;;;;83.40;49.45;;;12.90;99.90;;;;;;1966874;72;22268;-83
2022/03/13 10:25:47;;;;;;;11.85;8.93;;;13.00;99.90;;;;;;1942832;73;21105;-81
2022/03/13 10:28:41;;;;;;;9.35;6.08;;;13.20;99.90;;;;;;1921107;73;21199;-81
2022/03/13 10:31:35;;;;;;;8.88;6.35;;;13.40;99.90;;;;;;1930024;73;21114;-81
2022/03/13 10:34:26;;;;;;;8.55;6.85;;;13.50;99.90;;;;;;1940142;73;21083;-79
2022/03/13 10:40:16;;;;;;;6.45;4.70;;;13.90;99.90;;;;;;1956191;72;22213;-91
2022/03/13 10:43:29;;;;;;;13.40;7.03;;;14.00;99.90;;;;;;1886065;76;21034;-95
2022/03/13 10:46:27;;;;;;;9.68;6.47;;;14.00;99.90;;;;;;1885782;76;21099;-94
2022/03/13 12:39:55;;;;;;;2.75;0.85;;;16.10;99.90;;;;;;1958483;72;22240;-88
2022/03/13 12:43:05;;;;;;;1.92;0.90;;;16.00;99.90;;;;;;1932453;73;21184;-91
2022/03/13 12:45:59;;;;;;;2.27;1.00;;;16.00;99.90;;;;;;1922718;73;21483;-89
2022/03/13 12:48:56;;;;;;;2.42;0.85;;;16.10;99.90;;;;;;1917449;73;21094;-88
2022/03/13 12:51:49;;;;;;;1.37;0.80;;;16.00;99.90;;;;;;1927895;73;21150;-88
2022/03/13 12:54:42;;;;;;;0.90;0.80;;;15.90;99.90;;;;;;1922306;73;21058;-89
2022/03/13 12:57:35;;;;;;;1.07;0.80;;;15.90;99.90;;;;;;1917569;75;21134;-88
2022/03/13 13:00:35;;;;;;;1.42;0.88;;;16.00;99.90;;;;;;1943430;73;21498;-89
2022/03/13 13:03:28;;;;;;;1.20;1.00;;;16.00;99.90;;;;;;1932799;73;21081;-89
2022/03/13 13:06:31;;;;;;;1.60;0.90;;;16.00;99.90;;;;;;1942119;73;21564;-88
2022/03/13 13:09:29;;;;;;;1.25;0.80;;;16.00;99.90;;;;;;1935664;73;21047;-88
2022/03/13 13:12:20;;;;;;;;;;;16.00;99.90;;;;;;1920668;73;21201;-88
2022/03/13 13:15:13;;;;;;;0.75;0.75;;;16.10;99.90;;;;;;1923249;73;20163;-87
2022/03/13 13:18:05;;;;;;;1.47;0.70;;;16.00;99.90;;;;;;1917436;75;21102;-87
2022/03/13 13:21:10;;;;;;;1.45;0.72;;;16.00;99.90;;;;;;1934842;73;21798;-87
2022/03/13 13:24:22;;;;;;;1.17;0.70;;;16.00;99.90;;;;;;1920135;73;21561;-87
2022/03/13 13:27:15;;;;;;;1.42;0.60;;;16.00;99.90;;;;;;1927545;73;21534;-87
2022/03/13 13:33:01;;;;;;;1.20;0.80;;;15.70;99.90;;;;;;1941071;72;22126;-86
2022/03/13 13:36:13;;;;;;;1.10;0.60;;;15.60;99.90;;;;;;1899166;75;21107;-87
2022/03/13 13:39:08;;;;;;;1.17;0.62;;;15.60;99.90;;;;;;1903339;75;21095;-88
2022/03/13 13:44:40;;;;;;;1.05;0.70;;;15.40;99.90;;;;;;1945016;72;22294;-86
2022/03/13 13:50:30;;;;;;;0.98;0.80;;;15.40;99.90;;;;;;1933480;72;22546;-87
2022/03/13 13:53:55;;;;;;;1.35;0.80;;;15.40;99.90;;;;;;1888744;75;21091;-86
2022/03/13 13:56:52;;;;;;;2.58;0.82;;;15.40;99.90;;;;;;1885005;75;21048;-86
2022/03/13 13:59:43;;;;;;;1.47;0.80;;;15.50;99.90;;;;;;1878131;75;21057;-87
2022/03/13 14:02:35;;;;;;;1.37;0.78;;;15.50;99.90;;;;;;1901676;75;21122;-87
2022/03/13 14:08:07;;;;;;;0.70;0.60;;;15.70;99.90;;;;;;1964513;72;22240;-86
2022/03/13 14:11:17;;;;;;;0.95;0.80;;;15.70;99.90;;;;;;1917703;73;21154;-86
2022/03/13 14:14:09;;;;;;;0.68;0.60;;;15.60;99.90;;;;;;1939416;73;21064;-86
2022/03/13 14:19:46;;;;;;;0.60;0.60;;;15.60;99.90;;;;;;1922094;72;28013;-87
2022/03/13 14:22:56;;;;;;;0.55;0.50;;;15.80;99.90;;;;;;1911051;75;21046;-86
2022/03/13 14:25:47;;;;;;;0.68;0.60;;;15.90;99.90;;;;;;1902954;75;21114;-86
2022/03/13 14:28:39;;;;;;;0.75;0.60;;;15.80;99.90;;;;;;1888806;75;21741;-87
2022/03/13 14:34:11;;;;;;;1.00;0.60;;;15.90;99.90;;;;;;1944089;72;22217;-84
2022/03/13 14:37:21;;;;;;;0.70;0.50;;;16.00;99.90;;;;;;1932872;73;21023;-85
2022/03/13 14:40:15;;;;;;;0.60;0.57;;;16.00;99.90;;;;;;1920270;73;21130;-85
2022/03/13 14:43:06;;;;;;;0.95;0.50;;;15.90;99.90;;;;;;1936499;73;21153;-84
2022/03/13 14:48:37;;;;;;;2.85;0.55;;;15.60;99.90;;;;;;1940022;72;22334;-84
2022/03/13 14:51:47;;;;;;;1.25;0.50;;;15.50;99.90;;;;;;1911806;74;21113;-84
2022/03/13 14:54:38;;;;;;;0.60;0.50;;;15.40;99.90;;;;;;1906334;75;21102;-84
2022/03/13 15:00:12;;;;;;;1.02;0.40;;;15.10;99.90;;;;;;1949511;72;22261;-84
2022/03/13 15:03:22;;;;;;;0.80;0.50;;;15.10;99.90;;;;;;1906720;75;21059;-87
2022/03/13 15:06:14;;;;;;;1.57;0.50;;;15.00;99.90;;;;;;1904121;75;21219;-86
2022/03/13 15:09:07;;;;;;;0.33;0.33;;;14.90;99.90;;;;;;1895938;75;21157;-86
2022/03/13 15:14:47;;;;;;;1.07;0.50;;;14.70;99.90;;;;;;1942885;72;22233;-87
2022/03/13 15:17:59;;;;;;;0.35;0.35;;;14.70;99.90;;;;;;1944223;73;21182;-86
2022/03/13 15:20:52;;;;;;;0.55;0.50;;;14.50;99.90;;;;;;1937495;73;21173;-86
2022/03/13 15:23:43;;;;;;;0.60;0.40;;;14.50;99.90;;;;;;1921748;73;21060;-86
2022/03/13 15:26:35;;;;;;;1.75;0.45;;;14.50;99.90;;;;;;1923167;74;21099;-85
2022/03/13 15:32:08;;;;;;;0.90;0.50;;;14.50;99.90;;;;;;1934531;72;22126;-85
2022/03/13 15:35:18;;;;;;;0.80;0.50;;;14.50;99.90;;;;;;1907373;75;21083;-84
2022/03/13 15:38:10;;;;;;;0.50;0.42;;;14.50;99.90;;;;;;1887078;75;21522;-84
2022/03/13 15:43:41;;;;;;;0.70;0.42;;;14.60;99.90;;;;;;1936502;72;22157;-86
2022/03/13 15:46:51;;;;;;;1.05;0.55;;;14.60;99.90;;;;;;1913881;74;21066;-84
2022/03/13 15:49:43;;;;;;;0.65;0.50;;;14.50;99.90;;;;;;1884639;76;21168;-84
2022/03/13 15:52:35;;;;;;;1.62;0.40;;;14.30;99.90;;;;;;1909306;75;21133;-84
2022/03/13 15:58:10;;;;;;;0.68;0.65;;;14.30;99.90;;;;;;1938015;72;22208;-83
2022/03/13 16:04:00;;;;;;;0.47;0.42;;;14.30;99.90;;;;;;1931217;73;22635;-84
2022/03/13 16:09:49;;;;;;;0.80;0.50;;;14.20;99.90;;;;;;1938765;72;22215;-83
2022/03/13 16:12:59;;;;;;;0.42;0.30;;;14.10;99.90;;;;;;1901920;75;21061;-86
2022/03/13 16:15:52;;;;;;;2.35;0.50;;;13.90;99.90;;;;;;1889638;75;21121;-85
2022/03/13 16:21:28;;;;;;;0.60;0.57;;;13.70;99.90;;;;;;1927922;72;27925;-84
2022/03/13 16:24:38;;;;;;;0.50;0.50;;;13.80;99.90;;;;;;1895980;75;21129;-84
2022/03/13 16:30:12;;;;;;;1.17;0.60;;;13.60;99.90;;;;;;1935772;72;22154;-83
2022/03/13 16:33:22;;;;;;;0.68;0.50;;;13.50;99.90;;;;;;1910766;75;21078;-86
2022/03/13 16:38:52;;;;;;;1.42;0.60;;;13.40;99.90;;;;;;1935279;72;22153;-86
2022/03/13 16:42:02;;;;;;;0.60;0.60;;;13.30;99.90;;;;;;1906137;74;21092;-85
2022/03/13 16:44:53;;;;;;;0.68;0.50;;;13.20;99.90;;;;;;1892973;73;21191;-85
2022/03/13 16:50:25;;;;;;;0.90;0.50;;;13.00;99.90;;;;;;1931690;72;22260;-86
2022/03/13 16:53:35;;;;;;;0.60;0.53;;;12.80;99.90;;;;;;1911723;75;21169;-85
2022/03/13 16:56:27;;;;;;;0.40;0.40;;;12.70;99.90;;;;;;1916185;75;21087;-85
2022/03/13 16:59:18;;;;;;;1.02;0.60;;;12.60;99.90;;;;;;1905062;75;21641;-84
2022/03/13 17:02:10;;;;;;;0.50;0.50;;;12.50;99.90;;;;;;1896585;75;21467;-85
2022/03/13 17:07:45;;;;;;;0.75;0.50;;;12.60;99.90;;;;;;1958192;72;22241;-86
2022/03/13 17:10:56;;;;;;;1.02;0.70;;;12.60;99.90;;;;;;1902867;75;21104;-85
2022/03/13 17:13:48;;;;;;;0.50;0.40;;;12.60;99.90;;;;;;1901526;75;21051;-85
2022/03/13 17:19:20;;;;;;;1.12;0.47;;;12.60;99.90;;;;;;1948349;72;22127;-85
2022/03/13 17:22:31;;;;;;;2.55;0.70;;;12.60;99.90;;;;;;1924311;73;21139;-85
2022/03/13 17:28:02;;;;;;;1.12;0.80;;;12.50;99.90;;;;;;1976096;72;22191;-85
2022/03/13 17:31:15;;;;;;;1.00;0.50;;;12.50;99.90;;;;;;1950230;73;21098;-85
2022/03/13 17:34:09;;;;;;;3.50;0.75;;;12.50;99.90;;;;;;1922205;73;21121;-85
2022/03/13 17:37:01;;;;;;;1.10;0.90;;;12.50;99.90;;;;;;1940872;73;21114;-85
2022/03/13 17:39:53;;;;;;;1.80;1.20;;;12.50;99.90;;;;;;1917447;75;21052;-85
2022/03/13 17:42:45;;;;;;;1.87;1.00;;;12.50;99.90;;;;;;1915664;75;21110;-85
2022/03/13 17:48:24;;;;;;;1.00;0.60;;;12.40;99.90;;;;;;1951363;72;22172;-84
2022/03/13 17:51:43;;;;;;;0.60;0.50;;;12.40;99.90;;;;;;1922861;73;21047;-85
2022/03/13 17:57:18;;;;;;;0.80;0.60;;;12.40;99.90;;;;;;1942820;72;22184;-86
2022/03/13 18:03:07;;;;;;;1.35;0.40;;;12.30;99.90;;;;;;1931909;72;22297;-80
2022/03/13 18:06:23;;;;;;;0.40;0.33;;;12.30;99.90;;;;;;1904092;75;21094;-79
2022/03/13 18:09:17;;;;;;;0.55;0.50;;;12.30;99.90;;;;;;1885445;75;21122;-79
2022/03/13 18:14:51;;;;;;;0.50;0.40;;;12.40;99.90;;;;;;1943656;72;22354;-80
2022/03/13 18:18:02;;;;;;;0.55;0.45;;;12.40;99.90;;;;;;1917413;73;21097;-80
2022/03/13 18:20:54;;;;;;;0.50;0.40;;;12.30;99.90;;;;;;1932193;73;21219;-79
2022/03/13 18:23:46;;;;;;;0.72;0.42;;;12.30;99.90;;;;;;1927195;73;21603;-79
2022/03/13 18:29:17;;;;;;;0.53;0.30;;;12.30;99.90;;;;;;1968429;72;22132;-79
2022/03/13 18:35:08;;;;;;;0.90;0.47;;;12.40;99.90;;;;;;1954751;72;22249;-80
2022/03/13 18:38:18;;;;;;;0.85;0.50;;;12.40;99.90;;;;;;1917666;75;21110;-80
2022/03/13 18:43:59;;;;;;;0.40;0.30;;;12.40;99.90;;;;;;1948234;72;22120;-79
2022/03/13 18:47:08;;;;;;;1.47;0.37;;;12.40;99.90;;;;;;1909201;74;21054;-81
2022/03/13 18:50:00;;;;;;;0.50;0.40;;;12.40;99.90;;;;;;1908428;73;21087;-81
2022/03/13 18:52:53;;;;;;;0.40;0.40;;;12.30;99.90;;;;;;1916272;73;21113;-80
2022/03/13 18:58:35;;;;;;;0.50;0.50;;;12.30;99.90;;;;;;1950609;72;22138;-82
2022/03/13 19:01:46;;;;;;;0.78;0.47;;;12.30;99.90;;;;;;1922493;73;21105;-79
2022/03/13 19:04:42;;;;;;;0.47;0.37;;;12.20;99.90;;;;;;1921001;73;21133;-79
2022/03/13 19:07:34;;;;;;;0.98;0.50;;;12.10;99.90;;;;;;1919883;73;21055;-79
2022/03/13 19:10:26;;;;;;;3.12;2.42;;;12.10;99.90;;;;;;1917835;73;21203;-79
2022/03/13 19:13:18;;;;;;;0.75;0.30;;;12.10;99.90;;;;;;1919662;73;21813;-79
2022/03/13 19:16:11;;;;;;;0.47;0.30;;;12.00;99.90;;;;;;1917064;73;21095;-79
2022/03/13 19:19:06;;;;;;;1.52;1.10;;;11.80;99.90;;;;;;1920587;73;21161;-79
2022/03/13 19:21:56;;;;;;;0.90;0.50;;;11.90;99.90;;;;;;1917138;73;21079;-79
2022/03/13 19:27:28;;;;;;;0.80;0.40;;;11.90;99.90;;;;;;1926810;72;22325;-78
2022/03/13 19:33:18;;;;;;;1.40;0.78;;;11.70;99.90;;;;;;1951972;72;22237;-81
2022/03/13 19:36:28;;;;;;;1.20;0.60;;;11.60;99.90;;;;;;1941589;73;21129;-80
2022/03/13 19:39:30;;;;;;;0.65;0.33;;;11.50;99.90;;;;;;1935525;73;21105;-80
2022/03/13 19:42:23;;;;;;;0.55;0.10;;;11.30;99.90;;;;;;1928032;73;21106;-86
2022/03/13 19:47:58;;;;;;;0.00;0.00;;;9.80;99.90;;;;;;1936058;72;22268;-86
2022/03/13 19:53:51;;;;;;;0.60;0.08;;;9.00;99.90;;;;;;1958616;72;22104;-94
2022/03/13 19:57:03;;;;;;;0.00;0.00;;;8.70;99.90;;;;;;1920873;75;21039;-96
2022/03/13 20:12:59;;;;;;;0.60;0.10;;;8.10;99.90;;;;;;1891441;76;21119;-92
2022/03/13 20:15:50;;;;;;;0.62;0.20;;;8.10;99.90;;;;;;1917507;74;21097;-90
2022/03/13 20:18:42;;;;;;;1.95;0.30;;;8.20;99.90;;;;;;1929868;73;21116;-88
2022/03/13 20:21:43;;;;;;;0.62;0.10;;;8.10;99.90;;;;;;1913610;74;21633;-88
2022/03/13 20:27:09;;;;;;;0.08;0.00;;;8.10;99.90;;;;;;1935516;72;22284;-87
2022/03/13 20:33:03;;;;;;;0.55;0.10;;;7.90;99.90;;;;;;1940337;72;22593;-85
2022/03/13 20:36:13;;;;;;;1.27;0.20;;;7.80;99.90;;;;;;1890847;75;21092;-83
2022/03/13 20:41:46;;;;;;;0.42;0.30;;;7.60;99.90;;;;;;1928742;72;22769;-82
2022/03/13 20:44:55;;;;;;;1.02;0.30;;;7.60;99.90;;;;;;1887480;75;21148;-83
2022/03/13 20:50:27;;;;;;;0.85;0.20;;;7.30;99.90;;;;;;1928777;72;22302;-83
2022/03/13 20:53:38;;;;;;;0.68;0.40;;;7.30;99.90;;;;;;1913513;74;21050;-88
2022/03/13 20:56:32;;;;;;;1.30;0.30;;;7.20;99.90;;;;;;1889194;75;21066;-86
2022/03/13 20:59:25;;;;;;;2.72;0.30;;;7.20;99.90;;;;;;1900761;75;21116;-88
2022/03/13 21:04:57;;;;;;;0.40;0.20;;;7.20;99.90;;;;;;1949898;72;22240;-88
2022/03/13 21:08:08;;;;;;;0.75;0.37;;;7.10;99.90;;;;;;1919394;74;21130;-88
2022/03/13 21:11:00;;;;;;;0.42;0.30;;;7.10;99.90;;;;;;1918272;74;21095;-88
2022/03/13 21:13:52;;;;;;;0.70;0.20;;;7.10;99.90;;;;;;1904735;75;21102;-88
2022/03/13 21:16:46;;;;;;;1.27;0.20;;;7.00;99.90;;;;;;1913010;74;21080;-87
2022/03/13 21:19:38;;;;;;;0.50;0.20;;;6.90;99.90;;;;;;1903510;75;21052;-88
2022/03/13 21:22:29;;;;;;;0.40;0.20;;;6.90;99.90;;;;;;1907136;74;21184;-88